Aviation Digital Data Service (ADDS)

Output produced by METARs form (1714 UTC 24 June 2019)
found at http://www.aviationweather.gov/metar/data/
 
Forecast for: NFTF (FUA AMOTU TONGA , FJ)
Text: TAF NFTF 241708Z 2418/2518 07005KT 9999 FEW016 BKN100
Forecast period: 1800 UTC 24 June 2019 to 1800 UTC 25 June 2019
Forecast type: FROM: standard forecast or significant change
Winds: from the ENE (70 degrees) at 6 MPH (5 knots; 2.6 m/s)
Visibility: 6 or more miles 10+ km)
Ceiling: 10000 feet AGL
Clouds: few clouds at 1600 feet AGL
broken clouds at 10000 feet AGL
Weather: no significant weather forecast for this period